Weather observations for the past three days for
Harlan
Imperial (Metric)
Date Time (edt) Wind (mph) Vis. (mi.) Weather Sky Cond. Temperature (ºF) Relative Humidity Wind Chill (°F) Heat Index (°F) Pressure Precipitation (in)
Air Dwpt 6 hour altimeter (in) sea level (mb) 1 hr 3 hr 6 hr
Max. Min.
31 13:35 Calm 10.00 Partly Cloudy SCT036 SCT050 SCT070 87.3 68.7 54% 91 30.2 0.0
31 13:15 S 5 10.00 Partly Cloudy SCT060 86.5 70.2 58% 91 30.21 0.0
31 12:55 SW 3 10.00 Fair CLR 86 70.3 60% 91 30.22 0.0
31 12:35 W 5 10.00 Fair CLR 84.7 70.5 62% 90 30.22 0.0
31 12:15 S 3 10.00 Fair CLR 83.8 70.7 65% 89 30.23 0.0
31 11:55 SW 5 10.00 Fair CLR 82.9 69.6 64% 87 30.23 0.0
31 11:35 SW 3 10.00 Fair CLR 81.1 69.1 67% 84 30.23 0.0
31 11:15 Calm 10.00 Fair CLR 79.3 68.2 69% 82 30.23 0.0
31 10:55 Calm 10.00 Fair CLR 78.8 69.8 74% 81 30.23 0.0
31 10:35 Calm 10.00 Fair CLR 76.1 69.1 79% 77 30.23 0.0
31 10:15 Calm 10.00 Partly Cloudy SCT004 73 68.2 85% 30.23 0.0
31 09:55 Calm 10.00 Mostly Cloudy BKN002 70.7 68.2 92% 30.23 0.0
31 09:35 Calm 3.00 Overcast OVC002 68.7 67.5 96% 30.23 0.0
31 09:15 Calm 3.00 Overcast OVC002 68.5 68.2 99% 30.24 0.0
31 08:55 Calm 2.50 Overcast OVC002 67.8 67.6 99% 30.23 0.0
31 08:35 Calm 0.50 Overcast OVC002 66.7 66.7 100% 30.23 0.0
31 08:15 Calm 1.00 Overcast OVC002 66.9 66.9 100% 30.22 0.0
31 07:55 Calm 1.00 Overcast OVC002 66.4 66.4 68 66.2 100% 30.22 0.0
31 07:35 Calm 1.00 Overcast OVC002 66.7 66.7 100% 30.22 0.0
31 07:15 Calm 2.50 Overcast OVC002 66.7 66.7 100% 30.21 0.0
31 06:55 Calm 1.25 Overcast OVC002 66.7 66.7 100% 30.21 0.0
31 06:15 Calm 1.75 Overcast OVC002 66.9 66.9 100% 30.2 0.0
31 05:55 Calm 1.00 Overcast OVC002 66.7 66.7 100% 30.19 0.0
31 05:35 Calm 1.50 Overcast OVC002 67.1 67.1 100% 30.19 0.0
31 05:15 Calm 1.00 Overcast OVC002 67.3 67.3 100% 30.19 0.0
31 04:55 Calm 1.75 Overcast OVC002 67.3 67.3 100% 30.18 0.0
31 04:35 Calm 2.00 Overcast OVC002 67.3 67.3 100% 30.18 0.0
31 04:15 Calm 1.75 Overcast OVC002 67.3 67.3 100% 30.18 0.0
31 03:55 Calm 3.00 Overcast OVC002 67.8 67.8 100% 30.17 0.0
31 03:35 Calm 4.00 Overcast OVC002 67.5 67.5 100% 30.18 0.0
31 03:15 Calm 5.00 Mostly Cloudy BKN002 67.3 67.3 100% 30.18 0.0
31 02:55 Calm 5.00 Mostly Cloudy BKN002 67.5 67.5 100% 30.18 0.0
31 02:35 Calm 7.00 Mostly Cloudy BKN002 67.8 67.8 100% 30.19 0.0
31 02:15 Calm 7.00 Partly Cloudy SCT002 68 68 100% 30.19 0.0
31 01:55 Calm 7.00 Fair CLR 68 68 77 67.8 100% 30.19 0.0
31 01:35 Calm 5.00 Partly Cloudy SCT001 68 68 100% 30.2 0.0
31 01:15 Calm 7.00 Partly Cloudy SCT001 68.4 68.4 100% 30.2 0.0
31 00:55 Calm 7.00 Fair CLR 68.7 68.7 100% 30.2 0.0
31 00:35 Calm 7.00 Fair CLR 69.1 69.1 100% 30.2 0.0
31 00:15 Calm 7.00 Fair CLR 69.4 69.3 99% 30.2 0.0
30 23:55 Calm 7.00 Fair CLR 69.8 69.4 99% 30.2 0.0
30 23:35 Calm 7.00 Fair CLR 69.8 69.4 99% 30.19 0.0
30 23:15 Calm 7.00 Fair CLR 70.2 69.8 99% 30.19 0.0
30 22:55 Calm 7.00 Fair CLR 70.7 69.8 97% 30.2 0.0
30 22:35 Calm 7.00 Fair CLR 70.7 70.3 99% 30.2 0.0
30 22:15 Calm 7.00 Fair CLR 71.2 70.7 98% 30.18 0.0
30 21:55 Calm 7.00 Fair CLR 71.2 70 96% 30.18 0.0
30 21:35 Calm 7.00 Fair CLR 72 70 94% 30.17 0.0
30 21:15 Calm 7.00 Fair CLR 72.5 70 92% 30.17 0.0
30 20:55 Calm 10.00 Fair CLR 73 69.4 89% 30.17 0.0
30 20:35 Calm 7.00 Fair CLR 74.8 68.4 80% 30.16 0.0
30 20:15 Calm 7.00 Fair CLR 75.6 70 83% 76 30.16 0.0
30 19:55 Calm 7.00 Fair CLR 77.7 70.3 87.8 77.7 78% 80 30.16 0.0
30 19:35 Calm 7.00 Fair CLR 79.5 70.7 75% 83 30.15 0.0
30 19:15 Calm 10.00 Fair CLR 81.5 70.3 69% 85 30.15 0.0
30 18:55 Calm 7.00 Fair CLR 85.6 69.1 58% 90 30.15 0.0
30 18:35 Calm 7.00 Fair CLR 85.8 68.4 56% 89 30.15 0.0
30 18:15 Calm 10.00 Fair CLR 86.2 66.9 53% 89 30.15 0.0
30 17:55 Calm 10.00 Fair CLR 86.5 66.9 52% 89 30.15 0.0
30 17:35 Calm 7.00 Fair CLR 86.7 66.4 51% 89 30.15 0.0
30 17:15 S 3 7.00 Partly Cloudy SCT110 85.8 66.7 53% 88 30.15 0.0
30 16:55 Calm 10.00 Mostly Cloudy BKN110 86.2 67.8 54% 89 30.15 0.0
30 16:35 W 3 10.00 Mostly Cloudy BKN110 84.4 70 62% 89 30.16 0.0
30 16:15 NW 3 10.00 Overcast OVC110 84.2 68.2 59% 88 30.17 0.0
30 15:55 NW 6 7.00 Mostly Cloudy SCT060 BKN110 85.5 67.6 55% 89 30.18 0.0
30 15:35 NW 8 7.00 Mostly Cloudy SCT043 BKN060 85.5 67.8 56% 89 30.18 0.0
30 15:15 W 3 7.00 Fair CLR 86.7 66.7 51% 89 30.19 0.0
30 14:55 W 6 10.00 Partly Cloudy SCT041 SCT080 SCT110 86.4 67.6 54% 90 30.2 0.0
30 14:35 W 3 5.00 Partly Cloudy SCT110 86.5 66.6 51% 89 30.2 0.0
30 14:15 NW 5 10.00 Partly Cloudy SCT120 86.5 67.6 53% 90 30.21 0.0
30 13:55 SW 3 4.00 Partly Cloudy SCT120 85.1 66.9 85.8 66.2 55% 88 30.22 0.0
30 13:35 Calm 10.00 Fair CLR 84.4 68.2 58% 88 30.22 0.0
30 13:15 W 6 7.00 Fair CLR 83.8 67.8 59% 87 30.23 0.0
30 12:55 Calm 7.00 Fair CLR 83.8 68 59% 87 30.24 0.0
30 12:35 SW 3 7.00 Partly Cloudy SCT030 82.4 67.6 61% 85 30.24 0.0
30 12:15 Calm 7.00 Partly Cloudy SCT030 SCT034 83.3 69.3 63% 87 30.25 0.0
30 11:55 Calm 7.00 Partly Cloudy SCT032 82.6 69.3 64% 86 30.25 0.0
30 11:35 Calm 10.00 Partly Cloudy SCT029 SCT048 82 69.3 65% 86 30.25 0.0
30 11:15 Calm 10.00 Partly Cloudy SCT046 80.2 68.9 68% 83 30.25 0.0
30 10:55 Calm 10.00 Fair CLR 79.9 69.3 70% 83 30.25 0.0
30 10:35 Calm 10.00 Fair CLR 79.5 70.2 73% 83 30.25 0.0
30 10:15 Calm 10.00 Fair CLR 76.3 70 81% 77 30.25 0.0
30 09:55 Calm 10.00 Fair CLR 74.5 68.7 82% 30.25 0.0
30 09:35 Calm 10.00 Fair CLR 72.3 68.4 87% 30.25 0.0
30 09:15 Calm 7.00 Mostly Cloudy BKN001 69.4 68.4 96% 30.24 0.0
30 08:55 Calm 5.00 Overcast OVC001 68 68 100% 30.24 0.0
30 08:35 Calm 3.00 Overcast OVC001 67.1 67.1 100% 30.24 0.0
30 08:15 Calm 1.00 Overcast OVC001 66.4 66.4 100% 30.24 0.0
30 07:55 Calm 0.50 Overcast OVC001 66.2 66.2 68.2 65.8 100% 30.23 0.0
30 07:35 Calm 3.00 Overcast OVC001 66.2 66.2 100% 30.23 0.0
30 07:15 Calm 2.00 Overcast OVC001 66.2 66.2 100% 30.22 0.0
30 06:55 Calm 4.00 Overcast OVC001 66.2 66.2 100% 30.22 0.0
30 06:35 Calm 5.00 Overcast OVC001 66.2 66.2 100% 30.22 0.0
30 06:15 Calm 3.00 Overcast OVC001 65.8 65.8 100% 30.22 0.0
30 05:55 Calm 4.00 Overcast OVC001 66.2 66.2 100% 30.22 0.0
30 05:35 Calm 4.00 Overcast OVC001 66.2 66.2 100% 30.21 0.0
30 05:15 Calm 5.00 Mostly Cloudy BKN001 66.2 66.2 100% 30.2 0.0
30 04:55 Calm 1.75 Mostly Cloudy BKN001 66.4 66.4 100% 30.2 0.0
30 04:35 Calm 7.00 Partly Cloudy SCT001 66.6 66.6 100% 30.2 0.0
30 04:15 Calm 7.00 Fair CLR 66.7 66.7 100% 30.2 0.0
30 03:55 Calm 5.00 Partly Cloudy SCT001 66.7 66.7 100% 30.2 0.0
30 03:35 Calm 7.00 Mostly Cloudy BKN001 67.1 67.1 100% 30.2 0.0
30 03:15 Calm 5.00 Mostly Cloudy BKN001 BKN048 67.1 67.1 100% 30.2 0.0
30 02:55 Calm 5.00 Mostly Cloudy SCT001 BKN048 67.3 67.3 100% 30.2 0.0
30 02:35 Calm 5.00 Mostly Cloudy SCT001 BKN046 67.6 67.6 100% 30.21 0.0
30 02:15 Calm 7.00 Overcast OVC046 68 68 100% 30.21 0.0
30 01:55 Calm 7.00 Partly Cloudy SCT041 SCT048 68.4 68.4 76.5 68 100% 30.21 0.0
30 01:35 Calm 7.00 Fair CLR 68 68 100% 30.21 0.0
30 01:15 Calm 7.00 Fair CLR 68.2 68.2 100% 30.21 0.0
30 00:55 Calm 7.00 Fair CLR 68.5 68.5 100% 30.2 0.0
30 00:35 Calm 7.00 Fair CLR 68.9 68.7 99% 30.21 0.0
30 00:15 E 3 7.00 Fair CLR 69.1 68.9 99% 30.2 0.0
29 23:55 Calm 7.00 Fair CLR 69.4 69.3 99% 30.21 0.0
29 23:35 Calm 7.00 Fair CLR 69.8 69.4 99% 30.2 0.0
29 23:15 Calm 7.00 Fair CLR 70 69.6 99% 30.2 0.0
29 22:55 Calm 10.00 Fair CLR 70.5 69.6 97% 30.2 0.0
29 22:35 Calm 7.00 Fair CLR 70.9 69.8 96% 30.2 0.0
29 22:15 Calm 7.00 Partly Cloudy SCT065 71.1 70 96% 30.19 0.0
29 21:55 Calm 7.00 Partly Cloudy SCT065 71.2 70 96% 30.18 0.0
29 21:35 Calm 7.00 Partly Cloudy SCT065 71.6 69.8 94% 30.18 0.0
29 21:15 Calm 10.00 Fair CLR 72 69.8 93% 30.17 0.0
29 20:55 Calm 7.00 Fair CLR 73.2 69.8 89% 30.16 0.0
29 20:15 Calm 10.00 Fair CLR 75.2 69.8 83% 75 30.15 0.0
29 19:55 Calm 10.00 Fair CLR 77.2 70 88 77.2 79% 79 30.15 0.0
29 19:35 Calm 7.00 Fair CLR 80.2 69.8 71% 83 30.15 0.0
29 19:15 Calm 10.00 Fair CLR 84.2 70 62% 89 30.14 0.0
29 18:55 Calm 7.00 Fair CLR 84.4 68.2 58% 88 30.15 0.0
29 18:35 Calm 10.00 Fair CLR 84.4 66.7 56% 87 30.14 0.0
29 18:15 Calm 10.00 Fair CLR 85.1 66 53% 87 30.14 0.0
29 17:55 Calm 7.00 Fair CLR 86.7 64.9 48% 88 30.14 0.0
29 17:35 Calm 7.00 Fair CLR 86.5 64.8 48% 88 30.14 0.0
29 17:15 Calm 10.00 Fair CLR 86.9 64.6 47% 88 30.14 0.0
29 16:55 S 5 10.00 Fair CLR 86.9 64.8 48% 89 30.15 0.0
29 16:35 Calm 7.00 Fair CLR 86.4 63.5 47% 87 30.16 0.0
29 16:15 S 3 10.00 Fair CLR 86.7 64.2 47% 88 30.16 0.0
29 15:55 SE 3 7.00 Fair CLR 87.8 65.1 47% 90 30.17 0.0
29 15:35 S 5 10.00 Partly Cloudy SCT050 86.9 63.7 46% 88 30.17 0.0
29 15:15 Calm 10.00 Fair CLR 87.1 65.5 49% 89 30.18 0.0
29 14:55 W 5 7.00 Partly Cloudy SCT075 SCT090 86.2 64.8 49% 88 30.18 0.0
29 14:35 Calm 10.00 Partly Cloudy SCT075 83.3 64.9 54% 85 30.18 0.0
29 14:15 Calm 7.00 Fair CLR 85.8 63 46% 87 30.19 0.0
29 13:55 SE 5 5.00 Partly Cloudy SCT046 86.2 65.7 86.2 63.5 50% 88 30.19 0.0
29 13:35 Calm 7.00 Fair CLR 84.6 65.1 52% 86 30.2 0.0
29 13:15 E 5 7.00 Fair CLR 83.8 66.7 57% 86 30.2 0.0
29 12:55 E 3 7.00 Fair CLR 83.3 66.4 57% 86 30.2 0.0
29 12:35 Calm 7.00 Fair CLR 81.7 64.8 57% 83 30.22 0.0
29 12:15 S 3 10.00 Fair CLR 82 66.2 59% 84 30.22 0.0
29 11:55 E 3 10.00 Fair CLR 79.7 65.7 62% 82 30.23 0.0
29 11:35 E 3 10.00 Partly Cloudy SCT070 79.3 65.5 63% 81 30.23 0.0
29 11:15 Calm 10.00 Partly Cloudy SCT070 78.4 65.8 65% 80 30.23 0.0
29 10:55 Calm 10.00 Partly Cloudy SCT075 74.7 65.5 73% 30.23 0.0
29 10:35 Calm 10.00 Partly Cloudy SCT075 73 65.3 77% 30.23 0.0
29 10:15 Calm 10.00 Partly Cloudy SCT070 71.1 65.7 83% 30.22 0.0
29 09:55 Calm 10.00 Mostly Cloudy SCT001 BKN070 70.2 66 87% 30.22 0.0
29 09:35 NE 3 10.00 Overcast OVC001 66.9 64.9 93% 30.22 0.0
29 09:15 Calm 4.00 Overcast OVC001 65.5 65.3 99% 30.21 0.0
29 08:55 Calm 1.25 Overcast OVC001 64.6 64.6 100% 30.21 0.0
29 08:35 E 3 0.50 Overcast OVC001 63.5 63.5 100% 30.21 0.0
29 08:15 Calm 1.00 Overcast OVC001 63.7 63.7 100% 30.21 0.0
29 07:55 Calm 0.75 Overcast OVC001 63.5 63.5 65.3 63 100% 30.2 0.0
29 07:35 E 3 0.50 Overcast OVC001 63 63 100% 30.2 0.0
29 07:15 Calm 1.00 Overcast OVC001 63.5 63.5 100% 30.2 0.0
29 06:55 Calm 1.25 Overcast OVC001 63.5 63.5 100% 30.19 0.0
29 06:35 Calm 1.25 Overcast OVC001 63.9 63.9 100% 30.18 0.0
29 06:15 Calm 0.50 Overcast OVC001 63.9 63.9 100% 30.18 0.0
29 05:55 Calm 1.25 Overcast OVC001 63.9 63.9 100% 30.18 0.0
29 05:35 Calm 2.00 Overcast OVC001 64.2 64.2 100% 30.18 0.0
29 05:15 Calm 3.00 Overcast OVC001 64.4 64.4 100% 30.17 0.0
29 04:55 Calm 3.00 Overcast OVC001 64.4 64.4 100% 30.17 0.0
29 04:35 Calm 1.75 Overcast OVC001 64.6 64.6 100% 30.17 0.0
29 04:15 Calm 1.25 Overcast OVC001 64.6 64.6 100% 30.17 0.0
29 03:55 Calm 3.00 Overcast OVC001 64.6 64.6 100% 30.17 0.0
29 03:35 Calm 4.00 Overcast OVC001 64.4 64.4 100% 30.17 0.0
29 03:15 Calm 5.00 Mostly Cloudy BKN003 64.4 64.4 100% 30.16 0.0
29 02:55 Calm 5.00 Partly Cloudy SCT003 64.6 64.6 100% 30.16 0.0
29 02:35 Calm 7.00 Mostly Cloudy BKN003 65.1 65.1 100% 30.17 0.0
29 02:15 Calm 7.00 Partly Cloudy SCT005 65.1 65.1 100% 30.17 0.0
29 01:55 Calm 7.00 Fair CLR 65.3 65.3 75.2 65.3 100% 30.17 0.0
29 01:35 Calm 7.00 Fair CLR 65.3 65.3 100% 30.17 0.0
29 01:15 Calm 7.00 Partly Cloudy SCT002 65.7 65.7 100% 30.17 0.0
29 00:55 Calm 5.00 Mostly Cloudy BKN002 65.7 65.7 100% 30.17 0.0
29 00:35 Calm 7.00 Partly Cloudy SCT002 65.8 65.8 100% 30.17 0.0
29 00:15 Calm 7.00 Fair CLR 66.2 66.2 100% 30.17 0.0
28 23:55 Calm 7.00 Fair CLR 66.4 66.4 100% 30.17 0.0
28 23:35 Calm 10.00 Fair CLR 66.7 66.6 99% 30.16 0.0
28 23:15 Calm 7.00 Fair CLR 67.1 67.1 100% 30.16 0.0
28 22:55 Calm 10.00 Fair CLR 67.5 67.1 99% 30.16 0.0
28 22:35 Calm 10.00 Fair CLR 68 67.1 97% 30.16 0.0
28 22:15 Calm 10.00 Fair CLR 68.5 67.1 95% 30.15 0.0
28 21:55 Calm 10.00 Fair CLR 68.7 67.1 95% 30.14 0.0
28 21:35 Calm 7.00 Fair CLR 69.3 66.9 92% 30.14 0.0
28 21:15 Calm 7.00 Fair CLR 70 66.6 89% 30.13 0.0
28 20:55 Calm 5.00 Fair CLR 70.9 66.2 85% 30.12 0.0
28 20:35 Calm 7.00 Partly Cloudy SCT048 71.8 65.8 82% 30.12 0.0
28 20:15 Calm 5.00 Partly Cloudy SCT044 73.8 64.6 73% 30.11 0.0
28 19:55 Calm 7.00 Partly Cloudy SCT044 75.6 64.8 86.5 75.6 69% 77 30.11 0.0
28 19:35 Calm 7.00 Fair CLR 79 64.2 61% 81 30.1 0.0
28 19:15 Calm 7.00 Fair CLR 79.9 64.6 60% 82 30.1 0.0
28 18:55 NE 3 7.00 Partly Cloudy SCT049 81 64.9 58% 83 30.1 0.0
28 18:35 E 3 7.00 Partly Cloudy SCT049 SCT055 82.6 64.8 55% 84 30.09 0.0
28 18:15 NE 6 7.00 Fair CLR 83.7 62.1 48% 84 30.09 0.0
28 17:55 Calm 10.00 Fair CLR 83.7 61.7 48% 84 30.09 0.0
28 17:35 N 7 7.00 Partly Cloudy SCT047 SCT085 84.2 62.6 48% 85 30.09 0.0
28 17:15 N 7 10.00 Partly Cloudy SCT047 84.2 63.5 50% 85 30.09 0.0
28 16:55 NW 3 7.00 Fair CLR 85.8 62.8 46% 87 30.09 0.0
28 16:35 N 5 7.00 Fair CLR 83.8 64 51% 85 30.09 0.0
28 16:15 N 5 7.00 Partly Cloudy SCT048 SCT060 85.1 64.9 51% 87 30.1 0.0
28 15:55 NE 7 7.00 Partly Cloudy SCT048 85.1 64.9 51% 87 30.1 0.0
28 15:35 NW 7 7.00 Fair CLR 85.5 61.9 45% 86 30.1 0.0
28 15:15 NW 6 7.00 Partly Cloudy SCT065 84.7 63.7 49% 86 30.1 0.0
28 14:55 NW 6 7.00 Partly Cloudy SCT050 SCT065 84.2 61 46% 84 30.11 0.0
28 14:35 NE 5 7.00 Partly Cloudy SCT048 SCT060 85.5 63 47% 86 30.11 0.0
28 14:15 W 3 7.00 Mostly Cloudy BKN048 BKN060 84.9 61.7 46% 85 30.12 0.0
28 13:55 N 3 7.00 Partly Cloudy SCT044 SCT080 83.7 61 84.9 65.8 46% 84 30.12 0.0
Date Time (edt) Wind (mph) Vis. (mi.) Weather Sky Cond. Air Dwpt Max. Min. Relative Humidity Wind Chill (°F) Heat Index (°F) altimeter (in) sea level (mb) 1 hr 3 hr 6 hr
6 hour
Temperature (ºF) Pressure Precipitation (in)